Time;durP1;ratioP1;P1;durP2;ratioP2;P2;SDS_P1;SDS_P2;PMS_P1;PMS_P2;Temp;Humidity;BMP_temperature;BMP_pressure;BME280_temperature;BME280_humidity;BME280_pressure;Samples;Min_cycle;Max_cycle;Signal;HPM_P1;HPM_P2
2022/11/22 00:00:41;;;;;;;18.48;12.10;;;;;;;5.63;64.89;97634.63;4975812;28;20055;-81
2022/11/22 00:03:08;;;;;;;17.48;11.23;;;;;;;5.63;64.87;97632.03;4993462;28;20058;-81
2022/11/22 00:05:34;;;;;;;17.75;11.77;;;;;;;5.63;64.81;97625.97;4993005;28;20509;-81
2022/11/22 00:08:01;;;;;;;17.60;11.43;;;;;;;5.63;64.87;97629.41;4992510;28;20082;-81
2022/11/22 00:10:28;;;;;;;16.50;10.90;;;;;;;5.63;64.67;97613.75;4993056;28;20053;-81
2022/11/22 00:12:54;;;;;;;17.25;11.23;;;;;;;5.63;65.00;97612.91;4993108;28;20548;-81
2022/11/22 00:15:21;;;;;;;14.68;10.15;;;;;;;5.63;65.21;97611.13;4992806;28;20062;-80
2022/11/22 00:17:47;;;;;;;16.17;10.65;;;;;;;5.64;65.38;97606.75;4992978;28;20566;-81
2022/11/22 00:20:13;;;;;;;16.58;10.73;;;;;;;5.65;65.06;97608.41;4993001;28;20055;-81
2022/11/22 00:22:40;;;;;;;15.27;9.90;;;;;;;5.65;65.09;97598.81;4991803;28;20054;-81
2022/11/22 00:25:11;;;;;;;17.20;10.57;;;;;;;5.65;65.00;97595.38;4992793;28;20117;-81
2022/11/22 00:27:38;;;;;;;17.83;10.45;;;;;;;5.65;65.11;97592.75;4992781;28;20054;-81
2022/11/22 00:30:05;;;;;;;15.15;9.98;;;;;;;5.67;65.13;97596.09;4992604;28;20058;-81
2022/11/22 00:32:31;;;;;;;12.93;8.32;;;;;;;5.67;65.42;97590.88;4975676;28;20059;-81
2022/11/22 00:34:58;;;;;;;13.82;9.25;;;;;;;5.69;65.17;97589.81;5007623;28;20058;-81
2022/11/22 00:37:24;;;;;;;12.30;7.75;;;;;;;5.70;65.30;97583.66;4992583;28;20058;-81
2022/11/22 00:39:51;;;;;;;13.48;7.78;;;;;;;5.74;65.25;97579.88;4992426;28;20062;-81
2022/11/22 00:42:17;;;;;;;14.35;7.75;;;;;;;5.79;65.73;97584.75;4991182;28;20061;-81
2022/11/22 00:44:44;;;;;;;10.48;7.40;;;;;;;5.82;65.81;97574.09;4992559;28;20428;-81
2022/11/22 00:47:10;;;;;;;12.70;7.20;;;;;;;5.87;65.65;97573.78;4992430;28;20140;-80
2022/11/22 00:49:36;;;;;;;12.70;6.97;;;;;;;5.92;65.83;97578.66;4992569;28;20062;-81
2022/11/22 00:52:03;;;;;;;8.95;6.60;;;;;;;5.95;65.55;97574.03;4991306;28;20062;-81
2022/11/22 00:54:29;;;;;;;10.82;6.65;;;;;;;6.01;65.58;97585.81;4992407;28;20055;-81
2022/11/22 00:56:56;;;;;;;10.15;5.72;;;;;;;6.06;65.69;97583.72;4991897;28;20063;-80
2022/11/22 00:59:22;;;;;;;8.88;5.88;;;;;;;6.11;65.76;97581.63;4992451;28;20062;-81
2022/11/22 01:01:49;;;;;;;9.25;5.78;;;;;;;6.19;65.80;97569.75;4992115;28;20533;-81
2022/11/22 01:04:15;;;;;;;10.45;5.10;;;;;;;6.24;65.84;97567.63;5007369;28;20117;-81
2022/11/22 01:06:42;;;;;;;8.20;5.15;;;;;;;6.29;65.73;97565.53;4991894;28;20055;-81
2022/11/22 01:09:09;;;;;;;7.18;5.57;;;;;;;6.35;65.81;97567.66;4992162;28;20566;-81
2022/11/22 01:11:36;;;;;;;8.57;5.80;;;;;;;6.41;65.43;97562.91;4991800;28;20062;-81
2022/11/22 01:14:02;;;;;;;12.93;5.35;;;;;;;6.45;65.52;97559.97;4992220;28;20054;-81
2022/11/22 01:16:28;;;;;;;9.43;5.20;;;;;;;6.49;65.43;97563.16;5006944;28;20116;-81
2022/11/22 01:18:55;;;;;;;6.97;5.13;;;;;;;6.53;65.69;97562.00;4992108;28;20058;-81
2022/11/22 01:21:21;;;;;;;9.23;5.32;;;;;;;6.57;65.46;97559.97;4991820;28;20461;-81
2022/11/22 01:23:48;;;;;;;8.85;5.03;;;;;;;6.61;65.63;97558.78;4991819;28;20607;-81
2022/11/22 01:26:14;;;;;;;7.10;4.57;;;;;;;6.64;65.51;97558.56;4991504;28;20062;-81
2022/11/22 01:28:41;;;;;;;9.85;5.40;;;;;;;6.68;65.54;97544.31;4991901;28;20054;-80
2022/11/22 01:31:08;;;;;;;13.90;4.50;;;;;;;6.71;65.02;97545.84;4991623;28;20524;-81
2022/11/22 01:33:34;;;;;;;9.82;4.70;;;;;;;6.72;65.39;97540.50;4991876;28;20112;-81
2022/11/22 01:36:01;;;;;;;6.57;4.15;;;;;;;6.76;65.56;97535.88;4991533;28;20139;-81
2022/11/22 01:38:27;;;;;;;8.32;4.35;;;;;;;6.80;65.29;97542.53;4991373;28;20058;-80
2022/11/22 01:40:54;;;;;;;9.77;4.88;;;;;;;6.81;65.00;97540.75;4991397;28;20120;-81
2022/11/22 01:43:23;;;;;;;8.48;5.57;;;;;;;6.80;65.16;97536.47;4991390;28;20513;-80
2022/11/22 01:45:55;;;;;;;11.20;5.50;;;;;;;6.80;65.15;97550.38;4991613;28;20066;-81
2022/11/22 01:48:27;;;;;;;7.43;5.33;;;;;;;6.81;65.15;97548.59;4974175;28;20054;-81
2022/11/22 01:50:59;;;;;;;6.90;4.45;;;;;;;6.79;65.37;97546.09;5006470;28;20289;-81
2022/11/22 01:53:30;;;;;;;5.35;4.45;;;;;;;6.79;65.21;97551.31;4991566;28;20054;-81
2022/11/22 01:55:59;;;;;;;8.23;4.90;;;;;;;6.80;65.07;97541.72;4991012;28;20058;-81
2022/11/22 01:58:30;;;;;;;7.25;4.55;;;;;;;6.81;65.46;97553.81;4989704;28;20117;-81
2022/11/22 02:00:57;;;;;;;6.90;4.43;;;;;;;6.81;65.07;97554.66;4991374;28;20121;-81
2022/11/22 02:03:26;;;;;;;5.35;4.68;;;;;;;6.82;65.39;97548.47;4991203;28;20142;-81
2022/11/22 02:05:53;;;;;;;9.13;4.40;;;;;;;6.85;65.10;97540.41;4991131;28;20054;-81
2022/11/22 02:08:28;;;;;;;7.93;4.13;;;;;;;6.85;65.71;97543.03;4989822;28;20054;-81
2022/11/22 02:10:56;;;;;;;6.75;4.35;;;;;;;6.87;65.09;97561.19;5006233;28;20058;-81
2022/11/22 02:13:22;;;;;;;6.60;4.30;;;;;;;6.87;65.26;97541.09;4991201;28;20062;-81
2022/11/22 02:15:50;;;;;;;9.93;4.57;;;;;;;6.89;65.11;97536.56;4989783;28;20170;-80
2022/11/22 02:18:17;;;;;;;6.22;4.28;;;;;;;6.89;65.28;97533.97;4990811;28;20061;-81
2022/11/22 02:20:44;;;;;;;8.38;4.50;;;;;;;6.90;65.47;97543.50;4990167;28;20073;-80
2022/11/22 02:23:30;;;;;;;6.75;4.30;;;;;;;6.89;65.70;97533.97;5002082;28;20394;-81
2022/11/22 02:25:58;;;;;;;6.47;4.57;;;;;;;6.94;64.96;97540.63;4976993;28;20512;-81
2022/11/22 02:28:29;;;;;;;6.40;4.63;;;;;;;6.94;65.21;97546.69;4977264;28;20055;-81
2022/11/22 02:30:56;;;;;;;6.65;4.25;;;;;;;6.96;65.10;97547.41;4990621;28;20057;-81
2022/11/22 02:33:22;;;;;;;5.75;3.55;;;;;;;6.98;65.00;97536.81;4990930;28;20093;-81
2022/11/22 02:35:49;;;;;;;9.93;4.60;;;;;;;6.98;64.93;97529.81;4990882;28;20501;-81
2022/11/22 02:38:23;;;;;;;6.95;3.80;;;;;;;6.98;65.67;97536.81;4990985;28;20058;-81
2022/11/22 02:40:58;;;;;;;6.57;3.78;;;;;;;6.99;65.12;97521.00;4990865;28;20051;-81
2022/11/22 02:43:39;;;;;;;7.15;3.45;;;;;;;7.02;65.24;97525.16;4991821;28;20107;-81
2022/11/22 02:46:10;;;;;;;6.70;3.97;;;;;;;7.01;65.41;97506.03;4989785;28;20051;-81
2022/11/22 02:48:41;;;;;;;6.00;3.78;;;;;;;7.02;65.26;97509.47;4990791;28;20062;-81
2022/11/22 02:51:07;;;;;;;6.03;4.35;;;;;;;7.05;65.07;97517.06;4973547;28;20057;-81
2022/11/22 02:53:34;;;;;;;9.43;3.88;;;;;;;7.06;65.16;97525.78;4990874;28;20069;-81
2022/11/22 02:56:00;;;;;;;5.50;3.33;;;;;;;7.06;64.98;97521.34;4990715;28;20062;-81
2022/11/22 02:58:27;;;;;;;7.70;3.22;;;;;;;7.06;65.43;97518.72;4990010;28;20523;-80
2022/11/22 03:00:53;;;;;;;4.50;2.70;;;;;;;7.08;65.43;97522.06;4975437;28;20105;-80
2022/11/22 03:03:20;;;;;;;5.80;2.97;;;;;;;7.10;65.44;97538.47;4979846;28;20431;-80
2022/11/22 03:05:46;;;;;;;5.40;3.60;;;;;;;7.13;65.26;97537.41;4991115;28;20500;-81
2022/11/22 03:08:13;;;;;;;4.80;3.17;;;;;;;7.14;65.19;97533.84;4972978;28;20062;-81
2022/11/22 03:10:41;;;;;;;5.57;3.40;;;;;;;7.15;65.14;97544.16;4990606;28;20062;-81
2022/11/22 03:13:08;;;;;;;4.35;2.95;;;;;;;7.17;65.16;97547.50;4990738;28;20201;-81
2022/11/22 03:15:34;;;;;;;4.22;2.88;;;;;;;7.20;65.35;97549.06;4990351;28;20062;-80
2022/11/22 03:18:02;;;;;;;4.97;2.67;;;;;;;7.21;65.14;97549.88;5005448;28;20058;-80
2022/11/22 03:20:30;;;;;;;5.38;2.63;;;;;;;7.21;65.31;97540.25;4990353;28;20064;-80
2022/11/22 03:22:58;;;;;;;5.97;2.72;;;;;;;7.22;65.60;97547.13;4990182;28;20065;-80
2022/11/22 03:25:25;;;;;;;3.60;2.47;;;;;;;7.25;65.36;97551.31;4990158;28;20059;-81
2022/11/22 03:27:51;;;;;;;9.25;3.22;;;;;;;7.24;65.36;97547.84;4990188;28;20087;-80
2022/11/22 03:30:18;;;;;;;5.13;2.75;;;;;;;7.26;65.21;97551.16;4990329;28;20073;-81
2022/11/22 03:32:44;;;;;;;4.70;2.58;;;;;;;7.28;65.44;97558.91;4990385;28;20066;-81
2022/11/22 03:35:11;;;;;;;4.97;2.85;;;;;;;7.29;65.25;97557.97;4990077;28;20054;-81
2022/11/22 03:37:37;;;;;;;7.40;3.17;;;;;;;7.31;65.54;97563.91;4990535;28;20095;-81
2022/11/22 03:40:05;;;;;;;7.97;2.85;;;;;;;7.33;65.40;97558.56;4972859;28;20065;-81
2022/11/22 03:42:31;;;;;;;4.90;2.75;;;;;;;7.35;65.48;97556.63;4991651;28;20117;-81
2022/11/22 03:44:58;;;;;;;6.47;3.05;;;;;;;7.37;65.44;97566.03;4993532;28;20567;-81
2022/11/22 03:47:24;;;;;;;5.30;2.63;;;;;;;7.37;65.65;97555.56;4976321;28;20101;-80
2022/11/22 03:49:50;;;;;;;6.20;2.80;;;;;;;7.38;65.59;97552.00;4993372;28;20505;-81
2022/11/22 03:52:17;;;;;;;4.97;2.42;;;;;;;7.39;65.44;97551.03;4976248;28;20117;-81
2022/11/22 03:54:43;;;;;;;4.45;2.15;;;;;;;7.39;65.50;97550.19;4993633;28;20062;-81
2022/11/22 03:57:10;;;;;;;4.50;2.60;;;;;;;7.41;65.49;97554.34;4993422;28;20062;-81
2022/11/22 03:59:36;;;;;;;5.53;2.65;;;;;;;7.43;65.50;97565.56;4993355;28;20058;-81
2022/11/22 04:02:03;;;;;;;7.13;2.83;;;;;;;7.43;65.75;97562.94;4993817;28;20058;-81
2022/11/22 04:04:29;;;;;;;4.07;2.83;;;;;;;7.45;65.88;97573.28;4993311;28;20105;-80
2022/11/22 04:06:55;;;;;;;3.67;2.65;;;;;;;7.45;65.62;97568.06;4993241;28;20062;-81
2022/11/22 04:09:22;;;;;;;4.63;2.83;;;;;;;7.47;65.36;97562.69;4993435;28;20054;-81
2022/11/22 04:11:48;;;;;;;4.32;2.75;;;;;;;7.45;65.89;97562.81;4993350;28;20065;-80
2022/11/22 04:17:00;;;;;;;4.18;2.65;;;;;;;7.46;65.67;97579.34;4992835;28;20058;-81
2022/11/22 04:19:26;;;;;;;3.90;2.92;;;;;;;7.47;65.78;97584.44;4975585;28;20505;-81
2022/11/22 04:21:53;;;;;;;6.90;2.90;;;;;;;7.48;65.98;97580.88;4993204;28;20069;-80
2022/11/22 04:27:04;;;;;;;6.35;2.72;;;;;;;7.48;65.79;97588.72;4985525;28;20074;-81
2022/11/22 04:29:31;;;;;;;3.38;2.72;;;;;;;7.50;66.01;97588.59;4992767;28;20472;-81
2022/11/22 04:34:43;;;;;;;4.95;3.20;;;;;;;7.46;66.11;97581.94;4992644;28;20519;-80
2022/11/22 04:37:09;;;;;;;5.65;3.22;;;;;;;7.46;66.09;97589.81;4992492;28;20062;-81
2022/11/22 04:39:36;;;;;;;5.50;3.20;;;;;;;7.44;66.16;97592.53;4975465;28;20054;-81
2022/11/22 04:45:01;;;;;;;4.15;3.13;;;;;;;7.45;66.33;97591.63;4998534;28;20065;-81
2022/11/22 04:53:05;;;;;;;6.45;3.20;;;;;;;7.47;66.31;97592.31;5003713;28;20057;-83
2022/11/22 04:55:32;;;;;;;4.38;2.95;;;;;;;7.48;66.17;97598.38;5032193;28;20057;-84
2022/11/22 04:57:58;;;;;;;6.80;3.55;;;;;;;7.49;66.73;97597.44;5014417;28;20069;-82
2022/11/22 05:00:27;;;;;;;5.28;3.60;;;;;;;7.49;66.41;97594.81;5032109;28;20049;-80
2022/11/22 05:02:54;;;;;;;9.93;3.30;;;;;;;7.49;66.42;97600.03;5031860;28;20083;-80
2022/11/22 05:05:21;;;;;;;3.60;2.97;;;;;;;7.50;66.29;97606.94;5014110;28;20521;-81
2022/11/22 05:07:47;;;;;;;4.90;3.00;;;;;;;7.51;66.54;97613.84;5031599;28;20057;-81
2022/11/22 05:10:14;;;;;;;4.82;3.42;;;;;;;7.51;66.75;97614.66;5031884;28;20061;-81
2022/11/22 05:12:41;;;;;;;6.97;3.60;;;;;;;7.52;66.63;97612.91;5031508;28;20049;-81
2022/11/22 05:15:10;;;;;;;4.90;3.38;;;;;;;7.52;67.18;97608.47;5031631;28;20064;-81
2022/11/22 05:17:37;;;;;;;6.78;3.60;;;;;;;7.53;66.92;97611.94;5031322;28;20145;-81
2022/11/22 05:20:06;;;;;;;6.18;3.17;;;;;;;7.54;66.96;97621.44;5031742;28;20045;-81
2022/11/22 05:25:19;;;;;;;5.07;3.60;;;;;;;7.56;66.88;97623.00;5031380;28;20049;-83
2022/11/22 05:27:52;;;;;;;6.32;2.90;;;;;;;7.58;67.04;97614.19;5031324;28;20060;-81
2022/11/22 05:30:19;;;;;;;5.78;3.35;;;;;;;7.58;67.20;97617.63;5031783;28;20057;-81
2022/11/22 05:32:45;;;;;;;3.83;3.13;;;;;;;7.59;67.26;97619.28;5046480;28;20128;-81
2022/11/22 05:35:12;;;;;;;6.18;3.50;;;;;;;7.61;67.50;97619.19;5031234;28;20053;-81
2022/11/22 05:37:38;;;;;;;7.45;3.17;;;;;;;7.62;67.28;97616.44;5031145;28;20095;-82
2022/11/22 05:40:06;;;;;;;5.80;3.63;;;;;;;7.63;67.26;97615.47;5031389;28;20054;-81
2022/11/22 05:42:33;;;;;;;7.18;3.92;;;;;;;7.65;67.20;97605.72;5029591;28;20049;-84
2022/11/22 05:44:59;;;;;;;6.22;3.80;;;;;;;7.68;67.14;97615.97;5031127;28;20080;-81
2022/11/22 05:47:26;;;;;;;10.88;3.67;;;;;;;7.71;67.40;97608.81;5030863;28;20083;-83
2022/11/22 05:49:52;;;;;;;7.25;3.40;;;;;;;7.73;67.22;97617.38;5030067;28;20056;-81
2022/11/22 05:52:19;;;;;;;7.90;3.80;;;;;;;7.76;67.56;97617.13;5031046;28;20137;-82
2022/11/22 05:54:45;;;;;;;12.88;3.88;;;;;;;7.78;67.29;97625.69;5030882;28;20053;-81
2022/11/22 05:57:12;;;;;;;6.28;3.33;;;;;;;7.80;67.41;97618.53;5030524;28;20218;-81
2022/11/22 05:59:38;;;;;;;6.85;3.60;;;;;;;7.81;67.09;97626.28;5031030;28;20057;-84
2022/11/22 06:02:09;;;;;;;9.65;4.25;;;;;;;7.83;67.38;97628.78;5030979;28;20069;-83
2022/11/22 06:04:36;;;;;;;6.82;4.00;;;;;;;7.85;67.59;97624.22;5012520;28;20056;-82
2022/11/22 06:07:02;;;;;;;6.80;4.03;;;;;;;7.86;67.27;97631.16;5030722;28;20577;-79
2022/11/22 06:09:35;;;;;;;8.52;3.45;;;;;;;7.89;67.34;97630.09;5030659;28;20144;-80
2022/11/22 06:12:02;;;;;;;9.75;3.95;;;;;;;7.91;67.51;97639.47;5030571;28;20073;-78
2022/11/22 06:14:28;;;;;;;10.25;4.38;;;;;;;7.92;67.60;97635.91;5030569;28;20136;-78
2022/11/22 06:16:55;;;;;;;9.95;4.22;;;;;;;7.93;67.47;97636.75;5030307;28;20104;-81
2022/11/22 06:19:22;;;;;;;11.35;3.63;;;;;;;7.96;67.54;97641.72;5030374;28;20409;-78
2022/11/22 06:21:48;;;;;;;6.72;4.35;;;;;;;7.97;67.43;97642.56;5030761;28;20057;-79
2022/11/22 06:24:15;;;;;;;8.73;4.43;;;;;;;7.98;67.44;97641.59;5030071;28;20157;-79
2022/11/22 06:26:41;;;;;;;7.05;3.85;;;;;;;7.99;67.43;97653.75;5011646;28;20057;-81
2022/11/22 06:29:08;;;;;;;6.47;3.83;;;;;;;8.01;67.49;97652.69;5045109;28;20049;-78
2022/11/22 06:31:34;;;;;;;6.03;4.07;;;;;;;8.02;67.26;97643.00;5029529;28;20064;-78
2022/11/22 06:34:01;;;;;;;7.13;4.80;;;;;;;8.02;67.32;97653.50;5029181;28;20560;-83
2022/11/22 06:36:30;;;;;;;7.35;3.78;;;;;;;8.02;67.66;97658.72;5029475;28;20422;-83
2022/11/22 06:38:57;;;;;;;9.45;4.53;;;;;;;8.03;67.46;97674.34;5029332;28;20050;-82
2022/11/22 06:41:26;;;;;;;8.93;4.25;;;;;;;8.03;67.68;97671.72;5029580;28;20054;-82
2022/11/22 06:43:55;;;;;;;6.78;3.75;;;;;;;8.04;67.55;97665.50;5029789;28;20093;-83
2022/11/22 06:46:23;;;;;;;13.43;4.13;;;;;;;8.05;67.78;97669.81;5012897;28;20056;-82
2022/11/22 06:48:51;;;;;;;7.38;3.80;;;;;;;8.06;67.43;97666.22;5012690;28;20066;-81
2022/11/22 06:51:17;;;;;;;8.18;3.78;;;;;;;8.06;67.42;97673.25;5030282;28;20065;-82
2022/11/22 06:53:45;;;;;;;9.88;4.43;;;;;;;8.06;67.55;97681.97;5030515;28;20057;-82
2022/11/22 06:56:19;;;;;;;6.95;3.72;;;;;;;8.06;67.35;97676.72;5030017;28;20064;-83
2022/11/22 06:58:48;;;;;;;7.27;4.27;;;;;;;8.07;67.54;97683.63;5030185;28;20053;-82
2022/11/22 07:01:23;;;;;;;7.88;3.88;;;;;;;8.07;67.47;97688.00;5030372;28;20057;-82
2022/11/22 07:03:49;;;;;;;12.32;4.07;;;;;;;8.09;67.21;97691.34;5030172;28;20050;-83
2022/11/22 07:06:18;;;;;;;8.70;3.85;;;;;;;8.06;67.31;97683.72;5030195;28;20054;-80
2022/11/22 07:08:46;;;;;;;8.85;3.42;;;;;;;8.06;67.32;97691.59;5012389;28;20513;-78
2022/11/22 07:11:21;;;;;;;7.60;3.50;;;;;;;8.03;67.77;97687.44;5012935;28;20141;-79
2022/11/22 07:13:48;;;;;;;7.70;3.53;;;;;;;8.02;66.84;97682.31;5030451;28;20060;-79
2022/11/22 07:16:17;;;;;;;8.95;3.65;;;;;;;7.99;67.00;97690.44;5030781;28;20061;-81
2022/11/22 07:18:44;;;;;;;8.98;3.22;;;;;;;7.97;67.07;97695.78;5016445;28;20060;-79
2022/11/22 07:21:14;;;;;;;9.68;3.25;;;;;;;7.92;67.50;97696.16;5033981;28;20061;-78
2022/11/22 07:23:43;;;;;;;11.00;3.10;;;;;;;7.89;67.02;97709.47;5033416;28;20053;-79
2022/11/22 07:26:10;;;;;;;9.73;3.08;;;;;;;7.86;67.09;97712.38;5014056;28;20054;-79
2022/11/22 07:28:37;;;;;;;6.53;2.85;;;;;;;7.84;66.98;97714.25;5030834;28;20621;-80
2022/11/22 07:31:06;;;;;;;18.00;4.00;;;;;;;7.80;67.13;97724.16;5032184;28;20064;-79
2022/11/22 07:33:33;;;;;;;7.57;2.90;;;;;;;7.78;67.50;97720.00;5032221;28;20168;-80
2022/11/22 07:36:08;;;;;;;10.80;3.10;;;;;;;7.74;68.23;97715.94;5032016;28;20571;-82
2022/11/22 07:38:35;;;;;;;10.75;3.00;;;;;;;7.74;67.31;97726.41;5032035;28;20148;-82
2022/11/22 07:41:03;;;;;;;6.82;3.25;;;;;;;7.72;67.23;97726.53;5048644;28;20053;-80
2022/11/22 07:43:30;;;;;;;10.15;2.53;;;;;;;7.71;67.80;97724.88;5033024;28;20072;-81
2022/11/22 07:46:04;;;;;;;8.63;3.03;;;;;;;7.69;67.44;97732.84;5015185;28;20065;-81
2022/11/22 07:48:31;;;;;;;9.77;2.97;;;;;;;7.68;67.92;97733.81;5033165;28;20072;-82
2022/11/22 07:51:06;;;;;;;8.40;3.28;;;;;;;7.63;69.00;97733.31;5033243;28;20502;-81
2022/11/22 07:53:33;;;;;;;8.75;3.35;;;;;;;7.66;67.78;97738.31;5015513;28;20128;-81
2022/11/22 07:56:04;;;;;;;9.57;2.65;;;;;;;7.65;68.40;97735.81;5033408;28;20107;-81
2022/11/22 07:58:32;;;;;;;7.97;2.85;;;;;;;7.66;68.32;97738.31;5033240;28;20053;-80
2022/11/22 08:01:06;;;;;;;13.43;3.00;;;;;;;7.65;68.55;97741.03;5015889;28;20056;-81
2022/11/22 08:03:34;;;;;;;8.40;2.70;;;;;;;7.68;67.76;97746.06;5048550;28;20465;-82
2022/11/22 08:06:02;;;;;;;11.18;2.97;;;;;;;7.68;67.91;97746.06;5032933;28;20525;-82
2022/11/22 08:08:29;;;;;;;11.07;2.88;;;;;;;7.69;67.73;97743.31;5015799;28;20061;-81
2022/11/22 08:10:55;;;;;;;8.48;2.90;;;;;;;7.68;67.73;97743.44;5015235;28;20049;-81
2022/11/22 08:13:22;;;;;;;5.80;2.97;;;;;;;7.68;67.75;97748.69;5032991;28;20521;-81
2022/11/22 08:15:49;;;;;;;11.70;3.20;;;;;;;7.67;67.54;97753.06;5032837;28;20050;-81
2022/11/22 08:18:20;;;;;;;11.55;3.13;;;;;;;7.66;67.47;97754.03;5032928;28;20057;-82
2022/11/22 08:20:47;;;;;;;11.95;2.97;;;;;;;7.64;67.55;97750.72;5032681;28;20514;-81
2022/11/22 08:23:13;;;;;;;12.63;3.17;;;;;;;7.63;67.23;97753.44;5033223;28;20065;-82
2022/11/22 08:25:40;;;;;;;8.80;2.50;;;;;;;7.62;67.18;97749.97;5032766;28;20053;-82
2022/11/22 08:28:06;;;;;;;7.70;2.70;;;;;;;7.61;67.51;97764.03;5032032;28;20410;-82
2022/11/22 08:30:33;;;;;;;9.80;2.78;;;;;;;7.61;66.98;97755.31;5032712;28;20049;-81
2022/11/22 08:32:59;;;;;;;11.60;3.30;;;;;;;7.60;67.41;97751.91;5023371;28;20053;-82
2022/11/22 08:35:26;;;;;;;13.90;3.70;;;;;;;7.59;67.29;97744.16;5032413;28;20056;-82
2022/11/22 08:37:56;;;;;;;12.15;3.53;;;;;;;7.58;67.55;97745.13;5014955;28;20136;-80
2022/11/22 08:40:23;;;;;;;7.22;2.60;;;;;;;7.58;67.17;97742.50;5032880;28;20053;-80
2022/11/22 08:42:53;;;;;;;9.88;3.78;;;;;;;7.55;67.17;97746.16;5032282;28;20065;-81
2022/11/22 08:45:19;;;;;;;11.82;3.45;;;;;;;7.55;66.83;97754.00;5032329;28;20053;-80
2022/11/22 08:47:47;;;;;;;7.55;2.70;;;;;;;7.55;66.81;97751.41;5014525;28;20093;-81
2022/11/22 08:50:16;;;;;;;7.88;2.67;;;;;;;7.53;66.80;97751.53;5032899;28;20087;-80
2022/11/22 08:52:42;;;;;;;9.57;3.42;;;;;;;7.52;66.70;97757.69;5032320;28;20136;-80
2022/11/22 08:55:09;;;;;;;8.48;3.00;;;;;;;7.51;66.70;97760.47;5032188;28;20059;-82
2022/11/22 08:57:35;;;;;;;10.02;2.85;;;;;;;7.50;66.95;97774.47;5032205;28;20490;-82
2022/11/22 09:00:03;;;;;;;6.28;2.55;;;;;;;7.49;66.92;97770.19;5032333;28;20063;-80
2022/11/22 09:02:30;;;;;;;12.32;3.60;;;;;;;7.50;66.81;97774.47;5031876;28;20479;-79
2022/11/22 09:04:56;;;;;;;7.97;3.00;;;;;;;7.50;66.84;97771.88;5032104;28;20069;-81
2022/11/22 09:07:23;;;;;;;8.65;2.63;;;;;;;7.48;67.17;97771.97;5014421;28;20092;-81
2022/11/22 09:10:09;;;;;;;11.75;3.38;;;;;;;7.49;67.25;97775.44;5031418;28;20049;-82
2022/11/22 09:12:36;;;;;;;9.27;3.00;;;;;;;7.49;67.09;97776.28;5014306;28;20417;-82
2022/11/22 09:15:03;;;;;;;13.07;2.90;;;;;;;7.49;67.02;97775.44;5031709;28;20057;-82
2022/11/22 09:17:29;;;;;;;6.18;2.53;;;;;;;7.52;67.31;97780.44;5031634;28;20058;-81
2022/11/22 09:19:55;;;;;;;11.15;2.85;;;;;;;7.52;67.16;97773.41;5014410;28;20069;-82
2022/11/22 09:22:22;;;;;;;9.30;2.72;;;;;;;7.53;67.13;97782.09;5031556;28;20063;-82
2022/11/22 09:24:53;;;;;;;5.75;2.30;;;;;;;7.56;66.95;97779.25;5031660;28;20054;-81
2022/11/22 09:27:20;;;;;;;7.60;2.75;;;;;;;7.59;67.54;97783.44;5031450;28;20049;-84
2022/11/22 09:29:46;;;;;;;8.75;2.72;;;;;;;7.62;67.38;97794.50;5030599;28;20820;-83
2022/11/22 09:32:13;;;;;;;8.40;2.28;;;;;;;7.66;67.65;97789.84;5014053;28;20061;-83
2022/11/22 09:34:40;;;;;;;11.52;2.67;;;;;;;7.70;67.78;97791.28;5031499;28;20505;-82
2022/11/22 09:37:07;;;;;;;9.50;2.70;;;;;;;7.75;67.75;97790.94;5031400;28;20137;-81
2022/11/22 09:39:33;;;;;;;9.77;2.45;;;;;;;7.79;67.80;97795.81;5012987;28;20516;-82
2022/11/22 09:42:18;;;;;;;9.90;2.63;;;;;;;7.81;68.05;97801.78;5001937;28;20066;-82
2022/11/22 09:45:09;;;;;;;10.18;2.47;;;;;;;7.88;67.76;97801.28;5011702;28;20061;-82
2022/11/22 09:47:48;;;;;;;8.68;2.70;;;;;;;7.93;67.44;97810.47;5011424;28;20068;-82
2022/11/22 09:50:29;;;;;;;8.68;2.35;;;;;;;8.01;67.59;97798.56;5011534;28;20062;-82
2022/11/22 09:53:10;;;;;;;10.32;2.70;;;;;;;8.02;67.30;97795.81;5011582;28;20064;-83
2022/11/22 09:55:41;;;;;;;8.30;2.40;;;;;;;8.08;67.00;97797.13;5011385;28;20057;-82
2022/11/22 09:58:32;;;;;;;8.23;2.35;;;;;;;8.12;67.33;97802.94;5011250;28;20073;-82
2022/11/22 10:01:17;;;;;;;5.72;2.47;;;;;;;8.16;67.18;97809.63;5011417;28;20058;-83
2022/11/22 10:03:50;;;;;;;9.65;2.50;;;;;;;8.20;66.90;97801.41;5011543;28;20073;-82
2022/11/22 10:06:26;;;;;;;9.35;1.95;;;;;;;8.24;66.66;97804.63;5026286;28;20061;-83
2022/11/22 10:09:06;;;;;;;9.77;2.33;;;;;;;8.29;66.61;97806.84;5011182;28;20079;-82
2022/11/22 10:11:48;;;;;;;9.00;2.28;;;;;;;8.30;66.53;97806.72;5011501;28;20053;-81
2022/11/22 10:14:33;;;;;;;9.95;2.42;;;;;;;8.34;66.73;97816.03;5011428;28;20059;-82
2022/11/22 10:17:14;;;;;;;7.40;2.60;;;;;;;8.39;66.67;97810.44;5011100;28;20062;-83
2022/11/22 10:19:58;;;;;;;7.35;2.00;;;;;;;8.44;66.66;97808.28;5010938;28;20149;-81
2022/11/22 10:22:31;;;;;;;8.80;1.88;;;;;;;8.51;66.31;97813.00;5011438;28;20120;-83
2022/11/22 10:24:59;;;;;;;14.60;2.75;;;;;;;8.55;66.40;97806.59;5010568;28;20049;-82
2022/11/22 10:27:31;;;;;;;9.48;2.75;;;;;;;8.59;66.39;97808.00;5025628;28;20521;-82
2022/11/22 10:30:19;;;;;;;6.40;2.40;;;;;;;8.62;66.59;97813.03;5025856;28;20061;-82
2022/11/22 10:32:56;;;;;;;8.23;2.00;;;;;;;8.70;66.70;97809.78;4993294;28;20068;-82
2022/11/22 10:35:46;;;;;;;8.52;2.28;;;;;;;8.79;66.57;97810.84;5010624;28;20133;-80
2022/11/22 10:38:34;;;;;;;14.35;2.15;;;;;;;8.84;66.06;97806.03;5010582;28;20060;-83
2022/11/22 10:41:21;;;;;;;7.30;2.47;;;;;;;8.94;66.45;97808.75;5067698;22;20051;-78
2022/11/22 10:44:16;;;;;;;6.38;2.15;;;;;;;9.00;65.99;97805.63;5003073;28;20061;-80
2022/11/22 10:46:57;;;;;;;8.52;1.98;;;;;;;9.11;66.57;97802.94;5029134;28;20542;-80
2022/11/22 10:49:48;;;;;;;8.10;2.20;;;;;;;9.19;66.47;97797.06;5029863;28;20069;-80
2022/11/22 10:52:20;;;;;;;6.68;1.95;;;;;;;9.34;66.76;97791.47;5032727;28;20081;-80
2022/11/22 10:55:24;;;;;;;6.43;2.00;;;;;;;9.48;66.09;97791.16;5033727;28;20080;-80
2022/11/22 10:58:18;;;;;;;7.72;1.75;;;;;;;9.70;66.95;97775.38;5016248;28;20145;-79
2022/11/22 11:00:50;;;;;;;9.52;2.67;;;;;;;9.97;66.49;97785.31;5033720;28;20084;-81
2022/11/22 11:03:26;;;;;;;8.40;2.45;;;;;;;10.25;66.99;97776.81;5016165;28;20057;-80
2022/11/22 11:05:59;;;;;;;7.70;2.00;;;;;;;10.61;68.75;97773.72;5033252;28;20104;-80
2022/11/22 11:08:55;;;;;;;9.35;1.98;;;;;;;11.16;68.39;97772.31;5033286;28;20587;-80
2022/11/22 11:11:44;;;;;;;9.52;2.00;;;;;;;11.83;70.78;97764.41;5033480;28;20055;-80
2022/11/22 11:14:25;;;;;;;9.15;1.92;;;;;;;12.52;67.38;97768.47;5016024;28;20088;-80
2022/11/22 11:16:52;;;;;;;7.38;2.05;;;;;;;13.18;68.37;97767.41;5033460;28;20088;-80
2022/11/22 11:19:22;;;;;;;7.57;2.42;;;;;;;13.79;66.09;97765.69;5033457;28;20081;-80
2022/11/22 11:21:59;;;;;;;6.93;1.60;;;;;;;14.36;62.54;97755.47;5033292;28;20061;-80
2022/11/22 11:24:28;;;;;;;5.88;2.15;;;;;;;14.96;64.64;97761.53;5033239;28;20107;-80
2022/11/22 11:26:58;;;;;;;8.30;2.42;;;;;;;15.53;61.54;97756.34;5032892;28;20099;-80
2022/11/22 11:30:01;;;;;;;4.55;1.88;;;;;;;16.05;56.48;97748.94;5033209;28;20053;-80
2022/11/22 11:32:27;;;;;;;9.40;2.45;;;;;;;16.35;57.65;97742.97;4991112;28;20086;-80
2022/11/22 11:34:59;;;;;;;7.93;1.88;;;;;;;16.41;54.14;97747.59;5024765;28;20093;-80
2022/11/22 11:37:35;;;;;;;6.95;1.75;;;;;;;16.28;52.37;97753.47;5033215;28;20088;-80
2022/11/22 11:40:03;;;;;;;8.48;2.10;;;;;;;16.11;52.40;97758.84;5033075;28;20103;-80
2022/11/22 11:42:32;;;;;;;6.70;1.63;;;;;;;15.77;51.46;97758.13;5032719;28;20504;-80
2022/11/22 11:45:23;;;;;;;8.15;2.35;;;;;;;15.30;50.31;97756.22;5032438;28;20077;-80
2022/11/22 11:47:50;;;;;;;6.30;1.83;;;;;;;14.96;51.93;97753.59;5032393;28;20583;-80
2022/11/22 11:50:19;;;;;;;9.48;1.80;;;;;;;14.57;51.31;97762.13;5032708;28;20103;-80
2022/11/22 11:53:04;;;;;;;7.85;1.67;;;;;;;14.20;51.77;97761.53;5032719;28;20061;-80
2022/11/22 11:55:35;;;;;;;3.53;1.38;;;;;;;13.80;51.35;97759.41;5014671;28;20092;-80
2022/11/22 11:58:18;;;;;;;5.75;1.63;;;;;;;13.42;50.42;97767.59;5032405;28;20088;-80
2022/11/22 12:00:44;;;;;;;7.90;1.40;;;;;;;13.19;53.31;97763.78;5032414;28;20096;-80
2022/11/22 12:03:15;;;;;;;6.18;1.65;;;;;;;12.92;53.27;97768.19;5013846;28;20152;-80
2022/11/22 12:05:42;;;;;;;3.88;1.40;;;;;;;12.75;54.55;97762.78;5032142;28;20100;-79
2022/11/22 12:08:31;;;;;;;7.10;1.55;;;;;;;12.55;53.79;97762.06;5031974;28;20053;-80
2022/11/22 12:11:12;;;;;;;3.65;1.67;;;;;;;12.46;53.62;97758.53;5031791;28;20088;-80